Delphis Riga — VRQN8 — position and weather

sailwx.info

Track history (hours):
 
Tides and Currents Weather Stations Pressure Air Temp Water Temp Dewpoint Dewpoint Depression Visibility Wind Speed Wind Dir Waves Ship Positions

Delphis Riga

Last reported at 2017-Dec-15 10:51 UTC. Time now 2017-Dec-17 21:47 UTC.
Position N 39°38' E 024°06'.

Length 178 m; draft 8.7 m.

Type: Ship (hazmat cat D). MMSI: 477234800.

Date/timePositionNaut miles runAvg speedWind from/ knotsBaromVisibWave heightAir tempDewpointWater temp
2017-Dec-15 10:51N 39°38' E 024°06'513.1
2017-Dec-15 10:30N 39°37' E 024°11'138 3.4
2017-Dec-13 18:13N 38°30' E 026°47'156 6.5
2017-Dec-12 18:22N 40°26' E 029°01'3 0.4
2017-Dec-12 09:22N 40°25' E 029°06'2 4.1
2017-Dec-12 08:58N 40°26' E 029°04'17 6.1
2017-Dec-12 06:11N 40°39' E 028°50'313.9
2017-Dec-12 06:00N 40°40' E 028°53'713.5
2017-Dec-12 05:30N 40°42' E 029°01'714.0
2017-Dec-12 05:00N 40°43' E 029°11'713.6
2017-Dec-12 04:30N 40°44' E 029°20'612.0
2017-Dec-12 04:00N 40°45' E 029°27'4 0.4
2017-Dec-11 18:23N 40°46' E 029°32'1 3.0
2017-Dec-11 17:58N 40°45' E 029°31'612.8
2017-Dec-11 17:30N 40°44' E 029°23'2 4.9
2017-Dec-11 17:01N 40°44' E 029°20'1 2.1
2017-Dec-11 16:30N 40°44' E 029°19'3 6.6
2017-Dec-11 16:00N 40°45' E 029°15'4 8.2
2017-Dec-11 15:30N 40°47' E 029°10'3 6.8
2017-Dec-11 15:00N 40°48' E 029°05'612.5
2017-Dec-11 14:30N 40°51' E 028°58'611.4
2017-Dec-11 13:59N 40°57' E 028°56'4 8.7
2017-Dec-11 13:28N 41°00' E 028°60'0 0.0
2017-Dec-11 03:00N 41°00' E 029°00'2 3.1
2017-Dec-11 02:20N 40°58' E 028°60'3 8.5
2017-Dec-11 01:58N 40°55' E 028°58'4 8.8
2017-Dec-11 01:29N 40°53' E 028°54'4 8.0
2017-Dec-11 00:58N 40°51' E 028°49'236 8.8
2017-Dec-09 22:05N 38°19' E 024°55'116.3
2017-Dec-09 22:00N 38°18' E 024°54'2516.0
2017-Dec-09 20:27N 37°56' E 024°38'815.7
2017-Dec-09 19:54N 37°50' E 024°31'815.5
2017-Dec-09 19:22N 37°46' E 024°22'1015.7
2017-Dec-09 18:44N 37°39' E 024°13'415.7
2017-Dec-09 18:31N 37°36' E 024°09'815.3
2017-Dec-09 18:01N 37°35' E 023°60'815.2
2017-Dec-09 17:31N 37°37' E 023°51'815.2
2017-Dec-09 17:01N 37°41' E 023°42'815.6
2017-Dec-09 16:31N 37°48' E 023°38'713.7
2017-Dec-09 16:00N 37°54' E 023°37'3 6.4
2017-Dec-09 15:30N 37°57' E 023°35'0 0.1
2017-Dec-09 15:00N 37°57' E 023°35'0 0.0
2017-Dec-09 14:30N 37°57' E 023°35'0 0.0
2017-Dec-09 14:00N 37°57' E 023°35'0 0.0
2017-Dec-09 13:30N 37°57' E 023°35'0 0.0
2017-Dec-09 13:00N 37°57' E 023°35'0 0.0
2017-Dec-09 12:30N 37°57' E 023°35'0 0.0
2017-Dec-09 12:00N 37°57' E 023°35'0 0.0
2017-Dec-09 11:30N 37°57' E 023°35'0 0.0
2017-Dec-09 11:00N 37°57' E 023°35'0 0.0
2017-Dec-09 10:30N 37°57' E 023°35'0 0.0
2017-Dec-09 10:00N 37°57' E 023°35'0 0.0
2017-Dec-09 09:30N 37°57' E 023°35'0 0.0
2017-Dec-09 09:00N 37°57' E 023°35'0 0.0
2017-Dec-09 08:30N 37°57' E 023°35'0 0.0
2017-Dec-09 08:00N 37°57' E 023°35'0 0.0
2017-Dec-09 07:30N 37°57' E 023°35'0 0.0
2017-Dec-09 07:00N 37°57' E 023°35'0 0.0
2017-Dec-09 06:30N 37°57' E 023°35'0 0.0
2017-Dec-09 06:00N 37°57' E 023°35'0 0.0
2017-Dec-09 05:30N 37°57' E 023°35'0 0.0
2017-Dec-09 05:00N 37°57' E 023°35'0 0.0
2017-Dec-09 04:30N 37°57' E 023°35'0 0.0
2017-Dec-09 04:01N 37°57' E 023°35'0 0.0
2017-Dec-09 03:30N 37°57' E 023°35'0 0.0
2017-Dec-09 03:00N 37°57' E 023°35'0 0.0
2017-Dec-09 02:30N 37°57' E 023°35'0 0.0
2017-Dec-09 02:00N 37°57' E 023°35'0 0.0
2017-Dec-09 01:30N 37°57' E 023°35'0 0.0
2017-Dec-09 01:00N 37°57' E 023°35'0 0.0
2017-Dec-09 00:30N 37°57' E 023°35'0 0.0
2017-Dec-09 00:00N 37°57' E 023°35'0 0.0
2017-Dec-08 23:30N 37°57' E 023°35'0 0.0
2017-Dec-08 23:00N 37°57' E 023°35'0 0.0
2017-Dec-08 22:30N 37°57' E 023°35'0 0.0
2017-Dec-08 22:00N 37°57' E 023°35'0 0.0
2017-Dec-08 21:30N 37°57' E 023°35'0 0.0
2017-Dec-08 21:00N 37°57' E 023°35'0 0.0
2017-Dec-08 20:30N 37°57' E 023°35'0 0.0
2017-Dec-08 20:00N 37°57' E 023°35'0 0.0
2017-Dec-08 19:30N 37°57' E 023°35'0 0.0
2017-Dec-08 19:00N 37°57' E 023°35'0 0.0
2017-Dec-08 18:30N 37°57' E 023°35'0 0.0
2017-Dec-08 18:00N 37°57' E 023°35'0 0.0
2017-Dec-08 17:30N 37°57' E 023°35'0 0.0
2017-Dec-08 17:00N 37°57' E 023°35'0 0.0
2017-Dec-08 16:30N 37°57' E 023°35'0 0.0
2017-Dec-08 16:00N 37°57' E 023°35'0 0.0
2017-Dec-08 15:30N 37°57' E 023°35'0 0.1
2017-Dec-08 15:00N 37°57' E 023°35'2 3.7
2017-Dec-08 14:30N 37°55' E 023°35'1 1.2
2017-Dec-08 14:00N 37°55' E 023°36'0 0.3
2017-Dec-08 13:30N 37°55' E 023°36'0 0.5
2017-Dec-08 13:00N 37°55' E 023°36'1 2.7
2017-Dec-08 12:30N 37°53' E 023°35'0 0.7
2017-Dec-08 12:00N 37°53' E 023°35'2 4.3
2017-Dec-08 11:30N 37°51' E 023°33'1 2.2
2017-Dec-08 11:00N 37°51' E 023°32'0 0.1
2017-Dec-08 10:30N 37°51' E 023°32'0 0.1
2017-Dec-08 10:00N 37°51' E 023°32'0 0.1
2017-Dec-08 09:30N 37°51' E 023°32'0 0.1
2017-Dec-08 09:00N 37°51' E 023°32'0 0.0
2017-Dec-08 08:30N 37°51' E 023°32'0 0.1
2017-Dec-08 08:00N 37°51' E 023°32'0 0.1
2017-Dec-08 07:30N 37°51' E 023°32'0 0.0
2017-Dec-08 07:00N 37°51' E 023°32'0 0.0
2017-Dec-08 06:30N 37°51' E 023°32'0 0.0
2017-Dec-08 06:00N 37°51' E 023°32'0 0.0
2017-Dec-08 05:30N 37°51' E 023°32'0 0.1
2017-Dec-08 05:00N 37°51' E 023°32'0 0.0
2017-Dec-08 04:30N 37°51' E 023°32'0 0.0
2017-Dec-08 04:00N 37°51' E 023°32'0 0.1
2017-Dec-08 03:30N 37°51' E 023°32'0 0.0
2017-Dec-08 03:00N 37°51' E 023°32'0 0.1
2017-Dec-08 02:30N 37°51' E 023°32'0 0.1
2017-Dec-08 02:00N 37°51' E 023°32'0 0.0
2017-Dec-08 01:30N 37°51' E 023°32'0 0.0
2017-Dec-08 01:00N 37°51' E 023°32'0 0.0
2017-Dec-08 00:30N 37°51' E 023°32'0 0.0
2017-Dec-08 00:00N 37°51' E 023°32'0 0.0
2017-Dec-07 23:30N 37°51' E 023°32'0 0.0
2017-Dec-07 23:00N 37°51' E 023°32'0 0.1
2017-Dec-07 22:30N 37°51' E 023°32'0 0.0
2017-Dec-07 22:00N 37°51' E 023°32'0 0.0
2017-Dec-07 21:30N 37°51' E 023°32'0 0.0
2017-Dec-07 21:00N 37°51' E 023°32'0 0.1
2017-Dec-07 20:30N 37°51' E 023°32'0 0.1
2017-Dec-07 20:00N 37°51' E 023°32'0 0.0
2017-Dec-07 19:30N 37°51' E 023°32'0 0.1
2017-Dec-07 19:00N 37°51' E 023°32'0 0.0
2017-Dec-07 18:30N 37°51' E 023°32'0 0.1
2017-Dec-07 18:00N 37°51' E 023°32'0 0.1
2017-Dec-07 17:30N 37°51' E 023°32'0 0.1
2017-Dec-07 17:00N 37°51' E 023°32'0 0.0
2017-Dec-07 16:30N 37°51' E 023°32'0 0.1
2017-Dec-07 16:00N 37°51' E 023°32'0 0.0
2017-Dec-07 15:30N 37°51' E 023°32'0 0.1
2017-Dec-07 15:00N 37°51' E 023°32'0 0.0
2017-Dec-07 14:30N 37°51' E 023°32'0 0.0
2017-Dec-07 14:00N 37°51' E 023°32'0 0.1
2017-Dec-07 13:30N 37°51' E 023°32'0 0.0
2017-Dec-07 13:00N 37°51' E 023°32'0 0.0
2017-Dec-07 12:30N 37°51' E 023°32'0 0.0
2017-Dec-07 12:00N 37°51' E 023°32'0 0.0
2017-Dec-07 11:30N 37°51' E 023°32'0 0.0
2017-Dec-07 11:00N 37°51' E 023°32'0 0.0
2017-Dec-07 10:30N 37°51' E 023°32'0 0.1
2017-Dec-07 10:00N 37°51' E 023°32'0 0.1
2017-Dec-07 09:30N 37°51' E 023°32'0 0.0
2017-Dec-07 09:00N 37°51' E 023°32'0 0.0
2017-Dec-07 08:30N 37°51' E 023°32'0 0.0
2017-Dec-07 08:00N 37°51' E 023°32'0 0.1
2017-Dec-07 07:30N 37°51' E 023°32'0 0.1
2017-Dec-07 07:00N 37°51' E 023°32'0 0.0
2017-Dec-07 06:30N 37°51' E 023°32'0 0.0
2017-Dec-07 06:00N 37°51' E 023°32'0 0.1
2017-Dec-07 05:30N 37°51' E 023°32'0 0.1
2017-Dec-07 05:00N 37°51' E 023°32'0 0.1
2017-Dec-07 04:30N 37°51' E 023°32'0 0.1
2017-Dec-07 04:00N 37°51' E 023°32'0 0.1
2017-Dec-07 03:30N 37°51' E 023°32'0 0.0
2017-Dec-07 03:00N 37°51' E 023°32'0 0.0
2017-Dec-07 02:30N 37°51' E 023°32'0 0.0
2017-Dec-07 02:00N 37°51' E 023°32'0 0.2
2017-Dec-07 01:30N 37°51' E 023°32'0 0.1
2017-Dec-07 00:57N 37°51' E 023°32'0 0.1
2017-Dec-07 00:30N 37°51' E 023°32'0 0.0
2017-Dec-07 00:00N 37°51' E 023°32'0 0.0
2017-Dec-06 23:30N 37°51' E 023°32'0 0.0
2017-Dec-06 23:00N 37°51' E 023°32'0 0.1
2017-Dec-06 22:30N 37°51' E 023°32'0 0.0
2017-Dec-06 22:00N 37°51' E 023°32'0 0.0
2017-Dec-06 21:30N 37°51' E 023°32'0 0.1
2017-Dec-06 21:00N 37°51' E 023°32'  
Track history (hours):
 
Tides and Currents Weather Stations Pressure Air Temp Water Temp Dewpoint Dewpoint Depression Visibility Wind Speed Wind Dir Waves Ship Positions

Delphis Riga

Last reported at 2017-Dec-15 10:51 UTC. Time now 2017-Dec-17 21:47 UTC.
Position N 39°38' E 024°06'.

Length 178 m; draft 8.7 m.

Type: Ship (hazmat cat D). MMSI: 477234800.

Date/timePositionNaut miles runAvg speedWind from/ knotsBaromVisibWave heightAir tempDewpointWater temp
2017-Dec-15 10:51N 39°38' E 024°06'513.1
2017-Dec-15 10:30N 39°37' E 024°11'138 3.4
2017-Dec-13 18:13N 38°30' E 026°47'156 6.5
2017-Dec-12 18:22N 40°26' E 029°01'3 0.4
2017-Dec-12 09:22N 40°25' E 029°06'2 4.1
2017-Dec-12 08:58N 40°26' E 029°04'17 6.1
2017-Dec-12 06:11N 40°39' E 028°50'313.9
2017-Dec-12 06:00N 40°40' E 028°53'713.5
2017-Dec-12 05:30N 40°42' E 029°01'714.0
2017-Dec-12 05:00N 40°43' E 029°11'713.6
2017-Dec-12 04:30N 40°44' E 029°20'612.0
2017-Dec-12 04:00N 40°45' E 029°27'4 0.4
2017-Dec-11 18:23N 40°46' E 029°32'1 3.0
2017-Dec-11 17:58N 40°45' E 029°31'612.8
2017-Dec-11 17:30N 40°44' E 029°23'2 4.9
2017-Dec-11 17:01N 40°44' E 029°20'1 2.1
2017-Dec-11 16:30N 40°44' E 029°19'3 6.6
2017-Dec-11 16:00N 40°45' E 029°15'4 8.2
2017-Dec-11 15:30N 40°47' E 029°10'3 6.8
2017-Dec-11 15:00N 40°48' E 029°05'612.5
2017-Dec-11 14:30N 40°51' E 028°58'611.4
2017-Dec-11 13:59N 40°57' E 028°56'4 8.7
2017-Dec-11 13:28N 41°00' E 028°60'0 0.0
2017-Dec-11 03:00N 41°00' E 029°00'2 3.1
2017-Dec-11 02:20N 40°58' E 028°60'3 8.5
2017-Dec-11 01:58N 40°55' E 028°58'4 8.8
2017-Dec-11 01:29N 40°53' E 028°54'4 8.0
2017-Dec-11 00:58N 40°51' E 028°49'236 8.8
2017-Dec-09 22:05N 38°19' E 024°55'116.3
2017-Dec-09 22:00N 38°18' E 024°54'2516.0
2017-Dec-09 20:27N 37°56' E 024°38'815.7
2017-Dec-09 19:54N 37°50' E 024°31'815.5
2017-Dec-09 19:22N 37°46' E 024°22'1015.7
2017-Dec-09 18:44N 37°39' E 024°13'415.7
2017-Dec-09 18:31N 37°36' E 024°09'815.3
2017-Dec-09 18:01N 37°35' E 023°60'815.2
2017-Dec-09 17:31N 37°37' E 023°51'815.2
2017-Dec-09 17:01N 37°41' E 023°42'815.6
2017-Dec-09 16:31N 37°48' E 023°38'713.7
2017-Dec-09 16:00N 37°54' E 023°37'3 6.4
2017-Dec-09 15:30N 37°57' E 023°35'0 0.1
2017-Dec-09 15:00N 37°57' E 023°35'0 0.0
2017-Dec-09 14:30N 37°57' E 023°35'0 0.0
2017-Dec-09 14:00N 37°57' E 023°35'0 0.0
2017-Dec-09 13:30N 37°57' E 023°35'0 0.0
2017-Dec-09 13:00N 37°57' E 023°35'0 0.0
2017-Dec-09 12:30N 37°57' E 023°35'0 0.0
2017-Dec-09 12:00N 37°57' E 023°35'0 0.0
2017-Dec-09 11:30N 37°57' E 023°35'0 0.0
2017-Dec-09 11:00N 37°57' E 023°35'0 0.0
2017-Dec-09 10:30N 37°57' E 023°35'0 0.0
2017-Dec-09 10:00N 37°57' E 023°35'0 0.0
2017-Dec-09 09:30N 37°57' E 023°35'0 0.0
2017-Dec-09 09:00N 37°57' E 023°35'0 0.0
2017-Dec-09 08:30N 37°57' E 023°35'0 0.0
2017-Dec-09 08:00N 37°57' E 023°35'0 0.0
2017-Dec-09 07:30N 37°57' E 023°35'0 0.0
2017-Dec-09 07:00N 37°57' E 023°35'0 0.0
2017-Dec-09 06:30N 37°57' E 023°35'0 0.0
2017-Dec-09 06:00N 37°57' E 023°35'0 0.0
2017-Dec-09 05:30N 37°57' E 023°35'0 0.0
2017-Dec-09 05:00N 37°57' E 023°35'0 0.0
2017-Dec-09 04:30N 37°57' E 023°35'0 0.0
2017-Dec-09 04:01N 37°57' E 023°35'0 0.0
2017-Dec-09 03:30N 37°57' E 023°35'0 0.0
2017-Dec-09 03:00N 37°57' E 023°35'0 0.0
2017-Dec-09 02:30N 37°57' E 023°35'0 0.0
2017-Dec-09 02:00N 37°57' E 023°35'0 0.0
2017-Dec-09 01:30N 37°57' E 023°35'0 0.0
2017-Dec-09 01:00N 37°57' E 023°35'0 0.0
2017-Dec-09 00:30N 37°57' E 023°35'0 0.0
2017-Dec-09 00:00N 37°57' E 023°35'0 0.0
2017-Dec-08 23:30N 37°57' E 023°35'0 0.0
2017-Dec-08 23:00N 37°57' E 023°35'0 0.0
2017-Dec-08 22:30N 37°57' E 023°35'0 0.0
2017-Dec-08 22:00N 37°57' E 023°35'0 0.0
2017-Dec-08 21:30N 37°57' E 023°35'0 0.0
2017-Dec-08 21:00N 37°57' E 023°35'0 0.0
2017-Dec-08 20:30N 37°57' E 023°35'0 0.0
2017-Dec-08 20:00N 37°57' E 023°35'0 0.0
2017-Dec-08 19:30N 37°57' E 023°35'0 0.0
2017-Dec-08 19:00N 37°57' E 023°35'0 0.0
2017-Dec-08 18:30N 37°57' E 023°35'0 0.0
2017-Dec-08 18:00N 37°57' E 023°35'0 0.0
2017-Dec-08 17:30N 37°57' E 023°35'0 0.0
2017-Dec-08 17:00N 37°57' E 023°35'0 0.0
2017-Dec-08 16:30N 37°57' E 023°35'0 0.0
2017-Dec-08 16:00N 37°57' E 023°35'0 0.0
2017-Dec-08 15:30N 37°57' E 023°35'0 0.1
2017-Dec-08 15:00N 37°57' E 023°35'2 3.7
2017-Dec-08 14:30N 37°55' E 023°35'1 1.2
2017-Dec-08 14:00N 37°55' E 023°36'0 0.3
2017-Dec-08 13:30N 37°55' E 023°36'0 0.5
2017-Dec-08 13:00N 37°55' E 023°36'1 2.7
2017-Dec-08 12:30N 37°53' E 023°35'0 0.7
2017-Dec-08 12:00N 37°53' E 023°35'2 4.3
2017-Dec-08 11:30N 37°51' E 023°33'1 2.2
2017-Dec-08 11:00N 37°51' E 023°32'0 0.1
2017-Dec-08 10:30N 37°51' E 023°32'0 0.1
2017-Dec-08 10:00N 37°51' E 023°32'0 0.1
2017-Dec-08 09:30N 37°51' E 023°32'0 0.1
2017-Dec-08 09:00N 37°51' E 023°32'0 0.0
2017-Dec-08 08:30N 37°51' E 023°32'0 0.1
2017-Dec-08 08:00N 37°51' E 023°32'0 0.1
2017-Dec-08 07:30N 37°51' E 023°32'0 0.0
2017-Dec-08 07:00N 37°51' E 023°32'0 0.0
2017-Dec-08 06:30N 37°51' E 023°32'0 0.0
2017-Dec-08 06:00N 37°51' E 023°32'0 0.0
2017-Dec-08 05:30N 37°51' E 023°32'0 0.1
2017-Dec-08 05:00N 37°51' E 023°32'0 0.0
2017-Dec-08 04:30N 37°51' E 023°32'0 0.0
2017-Dec-08 04:00N 37°51' E 023°32'0 0.1
2017-Dec-08 03:30N 37°51' E 023°32'0 0.0
2017-Dec-08 03:00N 37°51' E 023°32'0 0.1
2017-Dec-08 02:30N 37°51' E 023°32'0 0.1
2017-Dec-08 02:00N 37°51' E 023°32'0 0.0
2017-Dec-08 01:30N 37°51' E 023°32'0 0.0
2017-Dec-08 01:00N 37°51' E 023°32'0 0.0
2017-Dec-08 00:30N 37°51' E 023°32'0 0.0
2017-Dec-08 00:00N 37°51' E 023°32'0 0.0
2017-Dec-07 23:30N 37°51' E 023°32'0 0.0
2017-Dec-07 23:00N 37°51' E 023°32'0 0.1
2017-Dec-07 22:30N 37°51' E 023°32'0 0.0
2017-Dec-07 22:00N 37°51' E 023°32'0 0.0
2017-Dec-07 21:30N 37°51' E 023°32'0 0.0
2017-Dec-07 21:00N 37°51' E 023°32'0 0.1
2017-Dec-07 20:30N 37°51' E 023°32'0 0.1
2017-Dec-07 20:00N 37°51' E 023°32'0 0.0
2017-Dec-07 19:30N 37°51' E 023°32'0 0.1
2017-Dec-07 19:00N 37°51' E 023°32'0 0.0
2017-Dec-07 18:30N 37°51' E 023°32'0 0.1
2017-Dec-07 18:00N 37°51' E 023°32'0 0.1
2017-Dec-07 17:30N 37°51' E 023°32'0 0.1
2017-Dec-07 17:00N 37°51' E 023°32'0 0.0
2017-Dec-07 16:30N 37°51' E 023°32'0 0.1
2017-Dec-07 16:00N 37°51' E 023°32'0 0.0
2017-Dec-07 15:30N 37°51' E 023°32'0 0.1
2017-Dec-07 15:00N 37°51' E 023°32'0 0.0
2017-Dec-07 14:30N 37°51' E 023°32'0 0.0
2017-Dec-07 14:00N 37°51' E 023°32'0 0.1
2017-Dec-07 13:30N 37°51' E 023°32'0 0.0
2017-Dec-07 13:00N 37°51' E 023°32'0 0.0
2017-Dec-07 12:30N 37°51' E 023°32'0 0.0
2017-Dec-07 12:00N 37°51' E 023°32'0 0.0
2017-Dec-07 11:30N 37°51' E 023°32'0 0.0
2017-Dec-07 11:00N 37°51' E 023°32'0 0.0
2017-Dec-07 10:30N 37°51' E 023°32'0 0.1
2017-Dec-07 10:00N 37°51' E 023°32'0 0.1
2017-Dec-07 09:30N 37°51' E 023°32'0 0.0
2017-Dec-07 09:00N 37°51' E 023°32'0 0.0
2017-Dec-07 08:30N 37°51' E 023°32'0 0.0
2017-Dec-07 08:00N 37°51' E 023°32'0 0.1
2017-Dec-07 07:30N 37°51' E 023°32'0 0.1
2017-Dec-07 07:00N 37°51' E 023°32'0 0.0
2017-Dec-07 06:30N 37°51' E 023°32'0 0.0
2017-Dec-07 06:00N 37°51' E 023°32'0 0.1
2017-Dec-07 05:30N 37°51' E 023°32'0 0.1
2017-Dec-07 05:00N 37°51' E 023°32'0 0.1
2017-Dec-07 04:30N 37°51' E 023°32'0 0.1
2017-Dec-07 04:00N 37°51' E 023°32'0 0.1
2017-Dec-07 03:30N 37°51' E 023°32'0 0.0
2017-Dec-07 03:00N 37°51' E 023°32'0 0.0
2017-Dec-07 02:30N 37°51' E 023°32'0 0.0
2017-Dec-07 02:00N 37°51' E 023°32'0 0.2
2017-Dec-07 01:30N 37°51' E 023°32'0 0.1
2017-Dec-07 00:57N 37°51' E 023°32'0 0.1
2017-Dec-07 00:30N 37°51' E 023°32'0 0.0
2017-Dec-07 00:00N 37°51' E 023°32'0 0.0
2017-Dec-06 23:30N 37°51' E 023°32'0 0.0
2017-Dec-06 23:00N 37°51' E 023°32'0 0.1
2017-Dec-06 22:30N 37°51' E 023°32'0 0.0
2017-Dec-06 22:00N 37°51' E 023°32'0 0.0
2017-Dec-06 21:30N 37°51' E 023°32'0 0.1
2017-Dec-06 21:00N 37°51' E 023°32'  

Dump ship's entire track history